Time;durP1;ratioP1;P1;durP2;ratioP2;P2;SDS_P1;SDS_P2;PMS_P1;PMS_P2;Temp;Humidity;BMP_temperature;BMP_pressure;BME280_temperature;BME280_humidity;BME280_pressure;Samples;Min_cycle;Max_cycle;Signal;HPM_P1;HPM_P2
2022/09/05 00:01:01;;;;;;;5.33;4.83;;;18.30;96.90;;;;;;5096076;28;20440;-71
2022/09/05 00:03:35;;;;;;;5.33;4.37;;;18.30;97.20;;;;;;5096741;28;20433;-71
2022/09/05 00:06:08;;;;;;;4.20;3.80;;;18.30;97.30;;;;;;5097007;28;20547;-71
2022/09/05 00:08:51;;;;;;;5.00;4.50;;;18.20;97.80;;;;;;5096922;28;20480;-71
2022/09/05 00:11:26;;;;;;;6.47;4.43;;;18.20;97.70;;;;;;5096953;28;20774;-71
2022/09/05 00:14:13;;;;;;;5.37;4.10;;;18.20;98.10;;;;;;5096455;28;20494;-71
2022/09/05 00:16:54;;;;;;;4.93;4.23;;;18.20;98.30;;;;;;5096913;28;20523;-71
2022/09/05 00:19:32;;;;;;;4.67;4.00;;;18.20;98.80;;;;;;5096835;28;20537;-70
2022/09/05 00:22:16;;;;;;;5.50;3.93;;;18.20;98.60;;;;;;5096445;28;20438;-71
2022/09/05 00:24:56;;;;;;;8.57;6.73;;;18.20;98.70;;;;;;5096610;28;20465;-71
2022/09/05 00:27:28;;;;;;;7.13;5.00;;;18.10;99.10;;;;;;5096582;28;20493;-72
2022/09/05 00:30:05;;;;;;;4.27;3.87;;;18.10;99.20;;;;;;5096836;28;20532;-71
2022/09/05 00:32:47;;;;;;;5.40;3.70;;;18.00;99.50;;;;;;5096743;28;20441;-71
2022/09/05 00:35:30;;;;;;;5.53;4.57;;;18.00;99.90;;;;;;5096544;28;20533;-71
2022/09/05 00:37:58;;;;;;;6.20;4.10;;;18.00;99.90;;;;;;5096236;28;20904;-71
2022/09/05 00:40:29;;;;;;;5.20;4.70;;;17.90;99.90;;;;;;5096026;28;20544;-71
2022/09/05 00:43:00;;;;;;;8.00;4.50;;;17.90;99.90;;;;;;5096193;28;20448;-71
2022/09/05 00:45:35;;;;;;;5.50;4.90;;;17.80;99.90;;;;;;5096257;28;20571;-71
2022/09/05 00:48:12;;;;;;;5.30;4.80;;;17.80;99.90;;;;;;5095661;28;20848;-71
2022/09/05 00:50:57;;;;;;;6.63;4.87;;;17.80;99.90;;;;;;5096087;28;20449;-71
2022/09/05 00:53:33;;;;;;;3.90;3.60;;;17.80;99.90;;;;;;5095893;28;20465;-71
2022/09/05 00:56:13;;;;;;;8.30;5.00;;;17.70;99.90;;;;;;5095883;28;20433;-71
2022/09/05 00:58:57;;;;;;;6.53;4.57;;;17.70;99.90;;;;;;5096010;28;20528;-72
2022/09/05 01:01:31;;;;;;;7.73;4.50;;;17.70;99.90;;;;;;5095941;28;20470;-71
2022/09/05 01:04:14;;;;;;;6.13;5.07;;;17.70;99.90;;;;;;5096040;28;20878;-72
2022/09/05 01:06:56;;;;;;;5.83;4.47;;;17.70;99.90;;;;;;5096196;28;20559;-71
2022/09/05 01:09:37;;;;;;;6.83;4.77;;;17.70;99.90;;;;;;5095935;28;20552;-71
2022/09/05 01:12:40;;;;;;;5.50;4.40;;;17.70;99.90;;;;;;5095705;28;20495;-71
2022/09/05 01:15:19;;;;;;;6.50;5.00;;;17.60;99.90;;;;;;5095699;28;20521;-71
2022/09/05 01:18:01;;;;;;;8.30;4.40;;;17.70;99.90;;;;;;5095711;28;20465;-71
2022/09/05 01:20:45;;;;;;;4.97;4.47;;;17.60;99.90;;;;;;5095320;28;20890;-70
2022/09/05 01:23:39;;;;;;;6.90;5.07;;;17.60;99.90;;;;;;5095424;28;20669;-70
2022/09/05 01:26:32;;;;;;;5.77;4.50;;;17.60;99.90;;;;;;5095509;28;20461;-71
2022/09/05 01:29:05;;;;;;;5.70;4.87;;;17.60;99.90;;;;;;5095254;28;20442;-71
2022/09/05 01:31:42;;;;;;;4.87;4.07;;;17.60;99.90;;;;;;5095640;28;20473;-71
2022/09/05 01:34:15;;;;;;;6.40;4.70;;;17.60;99.90;;;;;;5096116;28;20484;-71
2022/09/05 01:36:58;;;;;;;6.53;5.70;;;17.60;99.90;;;;;;5095575;28;20521;-71
2022/09/05 01:39:37;;;;;;;5.57;4.47;;;17.60;99.90;;;;;;5095246;28;20452;-72
2022/09/05 01:42:13;;;;;;;5.07;4.57;;;17.60;99.90;;;;;;5095224;28;20455;-71
2022/09/05 01:44:56;;;;;;;6.67;5.20;;;17.60;99.90;;;;;;5095335;28;20533;-71
2022/09/05 01:47:34;;;;;;;6.17;4.73;;;17.60;99.90;;;;;;5095194;28;20517;-71
2022/09/05 01:50:16;;;;;;;4.93;4.53;;;17.50;99.90;;;;;;5095264;28;20437;-71
2022/09/05 01:52:57;;;;;;;6.30;5.33;;;17.50;99.90;;;;;;5095165;28;20953;-71
2022/09/05 01:55:39;;;;;;;8.40;5.30;;;17.50;99.90;;;;;;5095069;28;20495;-71
2022/09/05 01:58:14;;;;;;;6.40;5.20;;;17.40;99.90;;;;;;5095180;28;20502;-72
2022/09/05 02:00:50;;;;;;;5.70;5.07;;;17.40;99.90;;;;;;5094991;28;20481;-71
2022/09/05 02:03:23;;;;;;;6.93;5.40;;;17.30;99.90;;;;;;5095224;28;20450;-71
2022/09/05 02:06:10;;;;;;;6.23;4.90;;;17.30;99.90;;;;;;5094686;28;20465;-71
2022/09/05 02:08:52;;;;;;;6.60;5.37;;;17.30;99.90;;;;;;5094995;28;20442;-71
2022/09/05 02:11:36;;;;;;;8.07;5.17;;;17.30;99.90;;;;;;5094918;28;20520;-71
2022/09/05 02:14:11;;;;;;;5.60;4.87;;;17.30;99.90;;;;;;5094633;28;20576;-71
2022/09/05 02:16:44;;;;;;;6.87;6.10;;;17.20;99.90;;;;;;5094515;28;20900;-71
2022/09/05 02:19:16;;;;;;;6.90;5.10;;;17.20;99.90;;;;;;5094563;28;20468;-71
2022/09/05 02:21:52;;;;;;;5.97;5.40;;;17.20;99.90;;;;;;5094402;28;20441;-71
2022/09/05 02:24:23;;;;;;;8.97;5.93;;;17.20;99.90;;;;;;5094444;28;20528;-71
2022/09/05 02:27:12;;;;;;;5.93;4.83;;;17.10;99.90;;;;;;5094556;28;20576;-71
2022/09/05 02:29:46;;;;;;;5.80;5.00;;;17.20;99.90;;;;;;5094597;28;20830;-71
2022/09/05 02:32:21;;;;;;;5.57;5.07;;;17.10;99.90;;;;;;5094581;28;20446;-71
2022/09/05 02:34:58;;;;;;;7.67;5.53;;;17.10;99.90;;;;;;5094525;28;20532;-71
2022/09/05 02:37:35;;;;;;;7.50;6.47;;;17.10;99.90;;;;;;5094272;28;20532;-70
2022/09/05 02:40:10;;;;;;;7.67;6.87;;;17.10;99.90;;;;;;5094526;28;20442;-70
2022/09/05 02:42:44;;;;;;;6.97;5.53;;;17.00;99.90;;;;;;5094543;28;20472;-71
2022/09/05 02:45:20;;;;;;;6.83;6.13;;;17.00;99.90;;;;;;5094363;28;20775;-71
2022/09/05 02:47:57;;;;;;;6.33;4.87;;;17.00;99.90;;;;;;5094485;28;20827;-71
2022/09/05 02:50:43;;;;;;;6.67;5.23;;;17.00;99.90;;;;;;5094485;28;20529;-71
2022/09/05 02:53:12;;;;;;;8.43;4.90;;;17.00;99.90;;;;;;5094113;28;20885;-71
2022/09/05 02:55:58;;;;;;;6.30;4.97;;;17.00;99.90;;;;;;5094353;28;20450;-71
2022/09/05 02:58:37;;;;;;;5.83;5.33;;;17.00;99.90;;;;;;5094322;28;20532;-71
2022/09/05 03:01:11;;;;;;;5.07;4.57;;;16.90;99.90;;;;;;5094391;28;20473;-71
2022/09/05 03:03:49;;;;;;;5.47;4.70;;;17.00;99.90;;;;;;5094047;28;20480;-71
2022/09/05 03:06:31;;;;;;;5.70;4.80;;;17.00;99.90;;;;;;5094311;28;20556;-71
2022/09/05 03:09:11;;;;;;;4.77;4.37;;;16.90;99.90;;;;;;5094217;28;20452;-71
2022/09/05 03:12:26;;;;;;;5.40;4.70;;;16.90;99.90;;;;;;5097274;28;20451;-71
2022/09/05 03:15:20;;;;;;;5.60;5.00;;;16.90;99.90;;;;;;5035815;28;20920;-71
2022/09/05 03:18:19;;;;;;;7.97;4.93;;;16.90;99.90;;;;;;5036008;28;20436;-71
2022/09/05 03:21:18;;;;;;;5.90;4.47;;;16.90;99.90;;;;;;5036068;28;20495;-71
2022/09/05 03:24:18;;;;;;;10.70;5.73;;;16.80;99.90;;;;;;4939069;29;20550;-71
2022/09/05 03:27:12;;;;;;;5.87;5.03;;;16.80;99.90;;;;;;4938915;29;20914;-71
2022/09/05 03:30:10;;;;;;;5.20;4.70;;;16.80;99.90;;;;;;4938405;29;20547;-71
2022/09/05 03:33:21;;;;;;;12.17;4.83;;;16.80;99.90;;;;;;4938728;29;20456;-71
2022/09/05 03:36:30;;;;;;;5.90;4.40;;;16.70;99.90;;;;;;4938140;29;20531;-71
2022/09/05 03:39:40;;;;;;;6.57;5.10;;;16.70;99.90;;;;;;4938286;29;20945;-71
2022/09/05 03:42:22;;;;;;;6.13;4.60;;;16.70;99.90;;;;;;4938069;29;20461;-72
2022/09/05 03:45:03;;;;;;;5.07;4.53;;;16.70;99.90;;;;;;4939971;29;20441;-71
2022/09/05 03:47:59;;;;;;;6.10;4.30;;;16.70;99.90;;;;;;4957147;29;20562;-71
2022/09/05 03:50:36;;;;;;;5.37;4.77;;;16.60;99.90;;;;;;4957154;29;20444;-71
2022/09/05 03:53:33;;;;;;;4.73;4.27;;;16.60;99.90;;;;;;4957417;29;20448;-71
2022/09/05 03:56:25;;;;;;;5.80;4.90;;;16.60;99.90;;;;;;4918904;29;20532;-72
2022/09/05 03:59:40;;;;;;;6.60;4.60;;;16.60;99.90;;;;;;4918798;29;20464;-71
2022/09/05 04:02:11;;;;;;;4.70;4.00;;;16.50;99.90;;;;;;4976030;28;20475;-71
2022/09/05 04:04:44;;;;;;;5.73;4.80;;;16.50;99.90;;;;;;4976301;28;20487;-71
2022/09/05 04:07:19;;;;;;;8.10;4.40;;;16.40;99.90;;;;;;4976723;28;20490;-72
2022/09/05 04:09:51;;;;;;;4.83;4.23;;;16.50;99.90;;;;;;4976551;28;20488;-71
2022/09/05 04:12:22;;;;;;;4.80;4.10;;;16.40;99.90;;;;;;4976633;28;20850;-71
2022/09/05 04:14:55;;;;;;;5.27;4.60;;;16.40;99.90;;;;;;4976014;28;20514;-71
2022/09/05 04:17:29;;;;;;;5.47;4.90;;;16.40;99.90;;;;;;4976217;28;21043;-71
2022/09/05 04:20:02;;;;;;;6.83;4.60;;;16.30;99.90;;;;;;4976081;28;20462;-71
2022/09/05 04:22:41;;;;;;;5.80;4.17;;;16.30;99.90;;;;;;4974985;28;20498;-71
2022/09/05 04:25:16;;;;;;;4.23;3.83;;;16.30;99.90;;;;;;4975873;28;20478;-71
2022/09/05 04:27:52;;;;;;;4.77;4.37;;;16.30;99.90;;;;;;4976147;28;20621;-72
2022/09/05 04:30:37;;;;;;;6.37;4.40;;;16.30;99.90;;;;;;4975593;28;20549;-74
2022/09/05 04:33:17;;;;;;;4.50;4.10;;;16.30;99.90;;;;;;4996138;28;20880;-72
2022/09/05 04:35:56;;;;;;;5.43;4.53;;;16.30;99.90;;;;;;5038146;28;20547;-72
2022/09/05 04:38:36;;;;;;;9.10;4.67;;;16.30;99.90;;;;;;5096542;28;20830;-72
2022/09/05 04:41:08;;;;;;;6.90;3.90;;;16.30;99.90;;;;;;5094719;28;20556;-72
2022/09/05 04:43:40;;;;;;;9.90;4.77;;;16.30;99.90;;;;;;5096492;28;20945;-72
2022/09/05 04:46:17;;;;;;;6.17;4.37;;;16.30;99.90;;;;;;5096512;28;20497;-72
2022/09/05 04:48:50;;;;;;;5.97;4.47;;;16.30;99.90;;;;;;5096180;28;20465;-72
2022/09/05 04:52:03;;;;;;;6.47;4.43;;;16.30;99.90;;;;;;5096675;28;20456;-72
2022/09/05 04:54:35;;;;;;;7.30;4.10;;;16.30;99.90;;;;;;4994892;28;20544;-72
2022/09/05 04:57:13;;;;;;;7.90;3.87;;;16.40;99.90;;;;;;4994522;28;20835;-72
2022/09/05 04:59:48;;;;;;;6.83;4.10;;;16.30;99.90;;;;;;4994724;28;20548;-72
2022/09/05 05:02:22;;;;;;;3.90;3.50;;;16.40;99.90;;;;;;4994742;28;20814;-72
2022/09/05 05:04:50;;;;;;;7.53;4.57;;;16.30;99.90;;;;;;4994547;28;20454;-72
2022/09/05 05:07:22;;;;;;;6.23;4.03;;;16.40;99.90;;;;;;4993427;28;20851;-72
2022/09/05 05:09:53;;;;;;;7.90;4.30;;;16.40;99.90;;;;;;4994566;28;20446;-72
2022/09/05 05:12:26;;;;;;;7.57;4.03;;;16.40;99.90;;;;;;4994869;28;20469;-72
2022/09/05 05:14:59;;;;;;;9.50;4.50;;;16.50;99.90;;;;;;4989855;28;20506;-72
2022/09/05 05:17:34;;;;;;;9.17;4.40;;;16.60;99.90;;;;;;4990167;28;20454;-72
2022/09/05 05:20:10;;;;;;;5.77;4.10;;;16.60;99.90;;;;;;4974769;28;20967;-71
2022/09/05 05:22:48;;;;;;;7.80;3.73;;;16.60;99.90;;;;;;4974661;28;20453;-71
2022/09/05 05:25:15;;;;;;;4.97;3.70;;;16.70;99.90;;;;;;4992378;28;20461;-71
2022/09/05 05:27:46;;;;;;;5.50;3.97;;;16.70;99.90;;;;;;4993794;28;20850;-71
2022/09/05 05:30:25;;;;;;;4.73;4.33;;;16.70;99.90;;;;;;5010614;28;20450;-71
2022/09/05 05:32:54;;;;;;;5.70;4.10;;;16.80;99.90;;;;;;5095626;28;20469;-71
2022/09/05 05:35:27;;;;;;;5.33;3.80;;;16.80;99.90;;;;;;5086713;28;20462;-71
2022/09/05 05:38:02;;;;;;;5.87;4.20;;;16.90;99.90;;;;;;5072821;28;20442;-71
2022/09/05 05:40:32;;;;;;;4.53;4.07;;;16.90;99.90;;;;;;5072757;28;20532;-71
2022/09/05 05:43:14;;;;;;;5.30;3.77;;;16.90;99.90;;;;;;5072788;28;20835;-72
2022/09/05 05:45:41;;;;;;;10.10;4.03;;;16.90;99.90;;;;;;5073319;28;20466;-71
2022/09/05 05:48:26;;;;;;;7.83;4.33;;;16.90;99.90;;;;;;5072462;28;20533;-71
2022/09/05 05:51:17;;;;;;;6.60;4.43;;;16.90;99.90;;;;;;5072824;28;20798;-71
2022/09/05 05:53:53;;;;;;;4.27;3.00;;;16.90;99.90;;;;;;5072267;28;20493;-71
2022/09/05 05:56:52;;;;;;;5.80;4.60;;;16.90;99.90;;;;;;5072572;28;20438;-71
2022/09/05 05:59:39;;;;;;;4.23;3.80;;;17.00;99.90;;;;;;5072060;28;20852;-70
2022/09/05 06:02:43;;;;;;;4.30;3.37;;;17.00;99.90;;;;;;5072480;28;20493;-72
2022/09/05 06:05:47;;;;;;;6.60;4.07;;;17.00;99.90;;;;;;5090096;28;20996;-72
2022/09/05 06:08:47;;;;;;;7.70;3.43;;;17.00;99.90;;;;;;5092542;28;20564;-71
2022/09/05 06:11:41;;;;;;;6.37;4.03;;;17.10;99.90;;;;;;5093031;28;20926;-72
2022/09/05 06:14:48;;;;;;;4.03;3.10;;;17.10;99.90;;;;;;5091862;28;20542;-72
2022/09/05 06:17:38;;;;;;;3.57;3.27;;;17.20;99.90;;;;;;5092500;28;20433;-71
2022/09/05 06:20:46;;;;;;;5.33;4.00;;;17.30;99.90;;;;;;4990418;28;20597;-71
2022/09/05 06:23:57;;;;;;;4.10;3.70;;;17.30;99.90;;;;;;4991756;28;20449;-71
2022/09/05 06:27:10;;;;;;;4.07;3.20;;;17.40;99.90;;;;;;4990741;28;20508;-71
2022/09/05 06:29:48;;;;;;;5.23;3.20;;;17.50;99.90;;;;;;4990859;28;20528;-72
2022/09/05 06:32:29;;;;;;;4.10;3.20;;;17.50;99.90;;;;;;4990870;28;20556;-72
2022/09/05 06:35:26;;;;;;;8.73;3.10;;;17.60;99.90;;;;;;4991058;28;20918;-72
2022/09/05 06:38:17;;;;;;;5.10;3.57;;;17.70;99.90;;;;;;4913641;29;20553;-72
2022/09/05 06:40:53;;;;;;;8.77;4.03;;;17.80;99.90;;;;;;4913859;29;20528;-72
2022/09/05 06:43:35;;;;;;;4.90;3.13;;;17.90;99.90;;;;;;4913465;29;20785;-71
2022/09/05 06:46:13;;;;;;;8.70;3.90;;;18.00;99.90;;;;;;4916342;29;21024;-72
2022/09/05 06:48:47;;;;;;;7.83;4.03;;;18.10;99.90;;;;;;4917743;29;20536;-71
2022/09/05 06:51:45;;;;;;;6.03;3.53;;;18.20;99.90;;;;;;4917703;29;20481;-72
2022/09/05 06:54:54;;;;;;;6.97;4.37;;;18.30;99.90;;;;;;4917797;29;20544;-71
2022/09/05 06:58:05;;;;;;;3.80;3.50;;;18.40;99.90;;;;;;4892316;29;20456;-72
2022/09/05 07:00:43;;;;;;;11.23;3.43;;;18.50;99.90;;;;;;4936471;29;20504;-72
2022/09/05 07:03:24;;;;;;;6.90;4.20;;;18.50;99.90;;;;;;4937806;29;20440;-72
2022/09/05 07:05:58;;;;;;;5.47;4.90;;;18.60;99.90;;;;;;4938656;29;20878;-72
2022/09/05 07:08:33;;;;;;;5.73;4.10;;;18.70;99.90;;;;;;4938644;29;20854;-72
2022/09/05 07:11:06;;;;;;;4.50;3.73;;;18.70;99.90;;;;;;4939202;29;20475;-72
2022/09/05 07:13:38;;;;;;;5.90;4.20;;;18.80;99.90;;;;;;4939418;28;20492;-72
2022/09/05 07:16:15;;;;;;;7.37;4.57;;;18.90;99.90;;;;;;4977009;28;20521;-72
2022/09/05 07:18:49;;;;;;;6.23;3.90;;;19.00;99.90;;;;;;4976601;28;20526;-72
2022/09/05 07:21:23;;;;;;;4.80;3.30;;;19.10;99.90;;;;;;4976603;28;20530;-71
2022/09/05 07:23:54;;;;;;;6.63;4.17;;;19.20;99.90;;;;;;4976699;28;20452;-72
2022/09/05 07:26:23;;;;;;;4.37;3.87;;;19.20;99.90;;;;;;4977187;28;20533;-71
2022/09/05 07:28:54;;;;;;;5.73;3.47;;;19.30;99.90;;;;;;4976500;28;20583;-71
2022/09/05 07:31:26;;;;;;;4.20;3.80;;;19.40;99.90;;;;;;4976697;28;20439;-73
2022/09/05 07:34:11;;;;;;;6.40;4.43;;;19.40;99.90;;;;;;5015834;28;20455;-72
2022/09/05 07:36:43;;;;;;;6.90;6.27;;;19.50;99.90;;;;;;5036973;28;20972;-72
2022/09/05 07:39:15;;;;;;;5.57;4.60;;;19.60;99.90;;;;;;5037758;28;20614;-71
2022/09/05 07:42:44;;;;;;;10.90;4.80;;;19.70;99.90;;;;;;4795611;28;22002;-71
2022/09/05 07:45:18;;;;;;;8.80;4.67;;;19.80;99.90;;;;;;4955881;29;20451;-72
2022/09/05 07:47:55;;;;;;;4.50;4.10;;;19.90;99.90;;;;;;4956875;29;20541;-71
2022/09/05 07:50:22;;;;;;;4.73;4.33;;;19.90;99.90;;;;;;4957184;29;20553;-71
2022/09/05 07:52:50;;;;;;;4.90;4.43;;;19.90;99.90;;;;;;4956741;29;20463;-72
2022/09/05 07:55:25;;;;;;;5.40;4.00;;;20.00;99.90;;;;;;4956641;29;20495;-71
2022/09/05 07:57:54;;;;;;;9.00;4.50;;;20.00;99.90;;;;;;4943029;28;21863;-72
2022/09/05 08:00:24;;;;;;;5.93;4.77;;;20.10;99.90;;;;;;4951421;28;20870;-72
2022/09/05 08:02:52;;;;;;;6.40;4.70;;;20.20;99.90;;;;;;4954484;29;20456;-71
2022/09/05 08:05:21;;;;;;;5.13;4.03;;;20.20;99.90;;;;;;4954814;29;20543;-71
2022/09/05 08:07:52;;;;;;;6.20;4.07;;;20.30;99.90;;;;;;4953442;29;20483;-71
2022/09/05 08:10:22;;;;;;;4.83;4.33;;;20.40;99.90;;;;;;4954897;29;20491;-71
2022/09/05 08:12:54;;;;;;;4.47;4.00;;;20.40;99.90;;;;;;4956795;28;20936;-72
2022/09/05 08:15:24;;;;;;;7.20;4.60;;;20.50;99.90;;;;;;4973793;28;20470;-72
2022/09/05 08:18:02;;;;;;;6.10;3.50;;;20.50;99.90;;;;;;4973478;28;20463;-71
2022/09/05 08:20:35;;;;;;;4.57;4.00;;;20.60;99.90;;;;;;4973434;28;20583;-71
2022/09/05 08:23:07;;;;;;;6.90;4.03;;;20.60;99.90;;;;;;5065006;28;20533;-71
2022/09/05 08:25:39;;;;;;;6.03;3.70;;;20.70;99.90;;;;;;5074621;28;20439;-72
2022/09/05 08:28:18;;;;;;;4.30;3.97;;;20.70;99.90;;;;;;5073969;28;20462;-72
2022/09/05 08:30:51;;;;;;;7.87;3.93;;;20.80;99.90;;;;;;5074047;28;20581;-71
2022/09/05 08:33:24;;;;;;;3.93;3.50;;;20.90;99.90;;;;;;5073788;28;20855;-72
2022/09/05 08:35:55;;;;;;;10.00;5.20;;;20.90;99.90;;;;;;5074071;28;20493;-73
2022/09/05 08:38:22;;;;;;;4.83;4.33;;;21.00;99.90;;;;;;5074202;28;20529;-72
2022/09/05 08:40:59;;;;;;;7.20;4.20;;;21.00;99.90;;;;;;5074023;28;20549;-73
2022/09/05 08:43:32;;;;;;;3.90;3.60;;;21.00;99.90;;;;;;5073991;28;20457;-71
2022/09/05 08:46:03;;;;;;;5.53;3.73;;;21.00;99.90;;;;;;5074012;28;20470;-71
2022/09/05 08:48:54;;;;;;;4.80;4.40;;;21.00;99.90;;;;;;5073828;28;20466;-72
2022/09/05 08:51:29;;;;;;;5.90;4.20;;;21.10;99.90;;;;;;5073709;28;20525;-72
2022/09/05 08:54:18;;;;;;;9.73;4.80;;;21.10;99.90;;;;;;5073808;28;20940;-72
2022/09/05 08:56:57;;;;;;;4.93;4.47;;;21.20;99.90;;;;;;5073497;28;20521;-71
2022/09/05 08:59:43;;;;;;;5.50;3.90;;;21.20;99.90;;;;;;5073188;28;20477;-72
2022/09/05 09:02:54;;;;;;;5.93;4.20;;;21.30;99.90;;;;;;5070090;28;20498;-71
2022/09/05 09:05:46;;;;;;;6.50;4.03;;;21.40;99.90;;;;;;4974092;28;20542;-72
2022/09/05 09:08:18;;;;;;;3.93;3.50;;;21.60;99.90;;;;;;4972760;28;20535;-71
2022/09/05 09:10:53;;;;;;;7.60;4.10;;;21.60;99.90;;;;;;4972852;28;20634;-71
2022/09/05 09:13:35;;;;;;;6.67;4.20;;;21.70;99.90;;;;;;4972532;28;20560;-71
2022/09/05 09:16:05;;;;;;;11.73;6.97;;;21.80;99.90;;;;;;4972734;28;21019;-72
2022/09/05 09:18:44;;;;;;;7.17;4.50;;;21.90;99.90;;;;;;4972365;28;20461;-72
2022/09/05 09:21:33;;;;;;;4.10;3.80;;;22.10;99.90;;;;;;4972388;28;20457;-72
2022/09/05 09:24:17;;;;;;;7.10;4.30;;;22.10;99.90;;;;;;4972214;28;20478;-72
2022/09/05 09:26:54;;;;;;;9.00;5.17;;;22.20;99.90;;;;;;4972145;28;20457;-72
2022/09/05 09:29:23;;;;;;;4.93;3.63;;;22.30;99.90;;;;;;4972445;28;20577;-72
2022/09/05 09:32:01;;;;;;;8.10;3.90;;;22.40;99.90;;;;;;4971883;28;20820;-72
2022/09/05 09:34:41;;;;;;;6.27;4.40;;;22.40;99.90;;;;;;4971516;28;20608;-73
2022/09/05 09:37:39;;;;;;;7.30;6.60;;;22.50;99.90;;;;;;4972186;28;20668;-72
2022/09/05 09:40:36;;;;;;;4.47;3.80;;;22.50;99.90;;;;;;4933175;29;20586;-72
2022/09/05 09:43:14;;;;;;;4.23;3.57;;;22.60;99.90;;;;;;5007444;28;20453;-72
2022/09/05 09:45:57;;;;;;;4.33;3.93;;;22.70;99.90;;;;;;5013450;28;20460;-72
2022/09/05 09:48:48;;;;;;;5.83;4.00;;;22.70;99.90;;;;;;5013578;28;20552;-72
2022/09/05 09:51:39;;;;;;;4.33;3.93;;;22.80;99.90;;;;;;5013223;28;20452;-72
2022/09/05 09:54:45;;;;;;;4.73;4.33;;;22.90;99.90;;;;;;5012840;28;20447;-72
2022/09/05 09:57:40;;;;;;;4.63;3.20;;;23.00;99.90;;;;;;5012794;28;20471;-72
2022/09/05 10:00:13;;;;;;;3.97;3.20;;;23.10;99.90;;;;;;5012922;28;20437;-72
2022/09/05 10:03:04;;;;;;;5.23;3.80;;;23.10;99.90;;;;;;5012941;28;20480;-71
2022/09/05 10:05:57;;;;;;;4.80;3.77;;;23.10;99.90;;;;;;5012952;28;20536;-72
2022/09/05 10:08:49;;;;;;;5.47;4.67;;;23.10;99.90;;;;;;5012565;28;20563;-71
2022/09/05 10:11:42;;;;;;;7.13;4.20;;;23.20;99.90;;;;;;5013410;28;20548;-72
2022/09/05 10:14:42;;;;;;;5.17;4.17;;;23.30;99.90;;;;;;5014387;28;20496;-71
2022/09/05 10:17:31;;;;;;;4.67;3.87;;;23.40;99.90;;;;;;5041410;28;20618;-72
2022/09/05 10:20:15;;;;;;;5.23;4.00;;;23.50;99.90;;;;;;5072343;28;20547;-70
2022/09/05 10:23:11;;;;;;;4.27;3.97;;;23.60;99.90;;;;;;5073775;28;20889;-71
2022/09/05 10:26:19;;;;;;;3.90;3.60;;;23.70;99.90;;;;;;5074266;28;20522;-72
2022/09/05 10:29:03;;;;;;;3.77;3.47;;;23.80;99.90;;;;;;4916171;29;20516;-72
2022/09/05 10:31:49;;;;;;;5.60;3.67;;;23.90;99.90;;;;;;4916074;29;20548;-72
2022/09/05 10:34:21;;;;;;;6.80;3.03;;;23.90;99.90;;;;;;4916082;29;20883;-72
2022/09/05 10:36:53;;;;;;;4.53;3.90;;;24.00;99.90;;;;;;4916276;29;20453;-71
2022/09/05 10:39:25;;;;;;;4.93;3.23;;;24.00;99.90;;;;;;4916221;29;20453;-72
2022/09/05 10:41:57;;;;;;;3.90;3.50;;;24.20;99.90;;;;;;4915880;29;20794;-72
2022/09/05 10:44:34;;;;;;;4.97;3.47;;;24.20;99.90;;;;;;4915906;29;20442;-72
2022/09/05 10:47:16;;;;;;;4.47;3.70;;;24.30;99.90;;;;;;4915853;29;20492;-74
2022/09/05 10:49:47;;;;;;;4.50;3.40;;;24.40;99.90;;;;;;4915741;29;20561;-74
2022/09/05 10:52:20;;;;;;;4.23;3.83;;;24.50;99.90;;;;;;4917087;29;20581;-74
2022/09/05 10:55:03;;;;;;;6.47;4.90;;;24.70;99.90;;;;;;4916751;29;20540;-74
2022/09/05 10:57:39;;;;;;;4.87;3.90;;;24.80;99.90;;;;;;4915896;29;20512;-74
2022/09/05 11:00:29;;;;;;;4.30;3.40;;;24.90;99.90;;;;;;4915911;29;20840;-74
2022/09/05 11:02:59;;;;;;;6.23;4.10;;;25.00;99.90;;;;;;4916229;29;20911;-75
2022/09/05 11:05:28;;;;;;;6.70;4.37;;;25.10;99.90;;;;;;4989782;28;20879;-73
2022/09/05 11:08:07;;;;;;;6.20;5.20;;;25.30;99.90;;;;;;5073593;28;20482;-73
2022/09/05 11:10:38;;;;;;;6.90;4.10;;;25.40;99.90;;;;;;5074487;28;20442;-74
2022/09/05 11:13:42;;;;;;;3.80;3.50;;;25.50;99.90;;;;;;5073934;28;20607;-73
2022/09/05 11:16:24;;;;;;;7.00;4.03;;;25.60;99.90;;;;;;5074151;28;20443;-74
2022/09/05 11:19:03;;;;;;;7.33;4.17;;;25.60;99.90;;;;;;5073943;28;20521;-73
2022/09/05 11:21:39;;;;;;;5.23;4.73;;;25.70;99.90;;;;;;5073474;28;20498;-74
2022/09/05 11:24:17;;;;;;;7.90;6.30;;;25.80;99.90;;;;;;5073666;28;20525;-74
2022/09/05 11:26:46;;;;;;;7.53;5.90;;;26.00;99.90;;;;;;5073555;28;20443;-73
2022/09/05 11:29:18;;;;;;;5.90;4.80;;;26.30;99.90;;;;;;5073573;28;20576;-74
2022/09/05 11:32:02;;;;;;;6.97;5.27;;;26.60;99.90;;;;;;5075450;28;20485;-74
2022/09/05 11:35:00;;;;;;;6.97;3.63;;;27.00;99.50;;;;;;5078339;28;20907;-74
2022/09/05 11:38:15;;;;;;;3.50;3.20;;;27.40;97.90;;;;;;5074650;28;20537;-74
2022/09/05 11:41:13;;;;;;;4.33;3.93;;;28.00;95.90;;;;;;4976880;28;20955;-74
2022/09/05 11:44:06;;;;;;;7.50;4.30;;;28.40;93.40;;;;;;4976398;28;20458;-73
2022/09/05 11:46:41;;;;;;;4.63;3.93;;;28.70;91.20;;;;;;4976202;28;20537;-74
2022/09/05 11:49:36;;;;;;;3.87;3.30;;;28.90;90.50;;;;;;4977638;28;20540;-74
2022/09/05 11:52:42;;;;;;;3.30;3.00;;;29.10;86.70;;;;;;4976885;28;20518;-75
2022/09/05 11:55:45;;;;;;;3.60;3.20;;;29.40;84.20;;;;;;4976533;28;20962;-74
2022/09/05 11:58:47;;;;;;;4.53;4.13;;;29.80;80.60;;;;;;4975656;28;20480;-72
2022/09/05 12:01:26;;;;;;;6.37;3.83;;;30.00;77.10;;;;;;4976855;28;20454;-75
2022/09/05 12:04:13;;;;;;;9.10;4.00;;;30.40;75.40;;;;;;4976148;28;20978;-74
2022/09/05 12:07:07;;;;;;;3.80;3.50;;;31.10;72.70;;;;;;4975963;28;20438;-74
2022/09/05 12:09:51;;;;;;;7.43;3.50;;;31.90;67.50;;;;;;4976166;28;20850;-74
2022/09/05 12:12:28;;;;;;;4.10;3.20;;;32.70;64.40;;;;;;4976299;28;20537;-74
2022/09/05 12:15:20;;;;;;;5.97;3.50;;;33.30;60.10;;;;;;5028910;28;20801;-74
2022/09/05 12:17:59;;;;;;;6.20;3.50;;;33.90;56.30;;;;;;5076306;28;20497;-74
2022/09/05 12:20:31;;;;;;;7.47;3.50;;;34.30;54.20;;;;;;5075996;28;20778;-74
2022/09/05 12:23:05;;;;;;;5.10;2.83;;;34.60;51.50;;;;;;5076311;28;20464;-74
2022/09/05 12:25:38;;;;;;;5.10;3.57;;;34.70;48.20;;;;;;5076511;28;20528;-74
2022/09/05 12:28:13;;;;;;;6.73;4.00;;;34.90;48.20;;;;;;5076124;28;20529;-75
2022/09/05 12:30:42;;;;;;;3.63;3.33;;;35.40;46.00;;;;;;5076233;28;20788;-74
2022/09/05 12:33:24;;;;;;;4.80;4.40;;;35.60;44.70;;;;;;5076425;28;20454;-74
2022/09/05 12:36:01;;;;;;;3.30;3.10;;;35.50;43.70;;;;;;5076470;28;20823;-74
2022/09/05 12:38:38;;;;;;;4.97;3.73;;;35.00;43.40;;;;;;5076059;28;20430;-74
2022/09/05 12:41:10;;;;;;;3.67;3.37;;;34.70;43.90;;;;;;5075426;28;20529;-74
2022/09/05 12:43:42;;;;;;;5.43;3.77;;;34.70;43.50;;;;;;5077587;28;20985;-74
2022/09/05 12:46:18;;;;;;;3.87;3.57;;;35.00;43.40;;;;;;5077559;28;20494;-74
2022/09/05 12:48:55;;;;;;;3.30;3.10;;;35.40;42.10;;;;;;5076466;28;20860;-74
2022/09/05 12:51:28;;;;;;;4.20;3.80;;;35.60;41.80;;;;;;5075930;28;20762;-74
2022/09/05 12:54:00;;;;;;;4.37;3.87;;;35.40;40.30;;;;;;5075585;28;20897;-74
2022/09/05 12:56:41;;;;;;;4.77;4.37;;;35.40;40.60;;;;;;5075285;28;20449;-74
2022/09/05 12:59:17;;;;;;;4.23;3.60;;;35.30;40.80;;;;;;5075382;28;20495;-74
2022/09/05 13:01:45;;;;;;;4.33;3.73;;;35.50;40.80;;;;;;5075480;28;20449;-74
2022/09/05 13:04:17;;;;;;;10.20;3.67;;;35.70;39.70;;;;;;5075674;28;20923;-74
2022/09/05 13:06:47;;;;;;;3.90;3.30;;;36.10;40.10;;;;;;5075815;28;20447;-73
2022/09/05 13:09:23;;;;;;;6.10;5.50;;;36.40;39.40;;;;;;5075615;28;20873;-74
2022/09/05 13:12:02;;;;;;;5.23;4.73;;;36.90;38.00;;;;;;5074652;28;20438;-73
2022/09/05 13:14:35;;;;;;;5.43;4.90;;;37.20;36.90;;;;;;5074942;28;20572;-76
2022/09/05 13:17:06;;;;;;;3.90;3.60;;;37.20;36.10;;;;;;5075007;28;20438;-74
2022/09/05 13:19:39;;;;;;;5.07;4.10;;;37.20;35.40;;;;;;5075493;28;20875;-74
2022/09/05 13:22:09;;;;;;;3.60;3.30;;;37.00;34.80;;;;;;5075045;28;21022;-73
2022/09/05 13:24:41;;;;;;;3.80;3.43;;;36.90;35.40;;;;;;5075822;28;20465;-73
2022/09/05 13:27:13;;;;;;;3.93;3.57;;;36.90;34.80;;;;;;5075205;28;20648;-74
2022/09/05 13:29:50;;;;;;;3.70;3.40;;;36.60;35.20;;;;;;5075214;28;20557;-74
2022/09/05 13:32:20;;;;;;;4.80;4.20;;;36.60;35.50;;;;;;5074838;28;20518;-74
2022/09/05 13:34:55;;;;;;;5.10;4.60;;;36.60;35.30;;;;;;5074762;28;20942;-73
2022/09/05 13:37:27;;;;;;;7.67;4.10;;;36.50;35.50;;;;;;5074762;28;20499;-73
2022/09/05 13:39:59;;;;;;;8.33;3.27;;;36.60;35.40;;;;;;5074700;28;20498;-74
2022/09/05 13:42:29;;;;;;;4.00;3.60;;;36.90;33.80;;;;;;5074920;28;20639;-73
2022/09/05 13:44:59;;;;;;;3.13;2.83;;;37.10;33.90;;;;;;5075099;28;20852;-73
2022/09/05 13:47:55;;;;;;;4.60;4.07;;;37.30;33.80;;;;;;5074916;28;20761;-73
2022/09/05 13:50:26;;;;;;;3.80;3.30;;;37.50;33.30;;;;;;5074439;28;20509;-73
2022/09/05 13:52:56;;;;;;;4.93;4.53;;;37.10;33.10;;;;;;5074453;28;20490;-74
2022/09/05 13:55:36;;;;;;;3.97;3.67;;;36.40;33.90;;;;;;5074457;28;20539;-74